Time;durP1;ratioP1;P1;durP2;ratioP2;P2;SDS_P1;SDS_P2;PMS_P1;PMS_P2;Temp;Humidity;BMP_temperature;BMP_pressure;BME280_temperature;BME280_humidity;BME280_pressure;Samples;Min_cycle;Max_cycle;Signal;HPM_P1;HPM_P2
2023/05/02 00:00:55;;;;;;;14.20;11.30;;;;;;;7.93;66.72;97876.89;106726;1276;24379;-75
2023/05/02 00:03:23;;;;;;;18.80;15.50;;;;;;;7.94;66.14;97874.63;106768;1276;25934;-76
2023/05/02 00:05:51;;;;;;;17.00;13.30;;;;;;;7.96;66.34;97873.80;106737;1276;23158;-76
2023/05/02 00:08:19;;;;;;;18.20;16.30;;;;;;;8.00;67.57;97874.20;106723;1276;22779;-76
2023/05/02 00:10:47;;;;;;;26.10;23.50;;;;;;;8.04;65.74;97872.14;106732;1276;22511;-76
2023/05/02 00:13:14;;;;;;;13.60;12.20;;;;;;;8.07;65.40;97872.79;106738;1276;22515;-76
2023/05/02 00:15:42;;;;;;;13.90;10.90;;;;;;;8.04;67.04;97870.19;106886;1276;23030;-76
2023/05/02 00:18:10;;;;;;;13.10;11.70;;;;;;;7.98;66.58;97870.19;106757;1276;22640;-75
2023/05/02 00:20:40;;;;;;;17.40;15.10;;;;;;;7.97;65.41;97869.39;106595;1276;22649;-75
2023/05/02 00:23:11;;;;;;;13.50;11.80;;;;;;;7.95;65.00;97864.48;106796;1276;22630;-75
2023/05/02 00:25:45;;;;;;;13.30;11.80;;;;;;;7.95;64.81;97869.15;106711;1276;25271;-76
2023/05/02 00:28:13;;;;;;;13.20;11.50;;;;;;;7.94;65.78;97870.33;106750;1276;22573;-76
2023/05/02 00:30:45;;;;;;;14.90;10.90;;;;;;;7.90;68.79;97865.70;106602;1254;24385;-77
2023/05/02 00:33:14;;;;;;;13.60;11.00;;;;;;;7.84;68.24;97869.83;106563;1276;22527;-77
2023/05/02 00:35:42;;;;;;;12.70;11.40;;;;;;;7.79;68.48;97867.88;106535;1276;22577;-77
2023/05/02 00:38:10;;;;;;;13.10;11.70;;;;;;;7.71;69.80;97870.74;106903;1276;22611;-77
2023/05/02 00:40:47;;;;;;;13.10;9.80;;;;;;;7.63;69.43;97869.84;106891;1276;23128;-77
2023/05/02 00:43:15;;;;;;;15.10;10.60;;;;;;;7.63;68.87;97869.67;106752;1276;25396;-77
2023/05/02 00:45:45;;;;;;;13.30;9.90;;;;;;;7.69;69.04;97866.04;106894;1276;22590;-76
2023/05/02 00:48:13;;;;;;;12.80;10.20;;;;;;;7.78;70.68;97865.21;106764;1272;24431;-75
2023/05/02 00:50:42;;;;;;;14.50;10.90;;;;;;;7.83;69.48;97866.25;106880;1276;22521;-76
2023/05/02 00:53:10;;;;;;;19.60;17.60;;;;;;;7.88;69.39;97865.35;106566;1276;22630;-75
2023/05/02 00:55:38;;;;;;;22.50;16.40;;;;;;;7.93;68.52;97867.06;106744;1276;22527;-77
2023/05/02 00:58:15;;;;;;;23.00;19.90;;;;;;;7.97;68.38;97864.73;106732;1276;25258;-77
2023/05/02 01:01:12;;;;;;;13.00;10.70;;;;;;;7.95;70.61;97868.77;106798;1275;23882;-75
2023/05/02 01:03:54;;;;;;;19.60;10.90;;;;;;;7.87;70.53;97876.52;106562;1276;24107;-75
2023/05/02 01:06:46;;;;;;;15.40;10.20;;;;;;;7.82;70.66;97877.63;106766;1276;22573;-77
2023/05/02 01:09:23;;;;;;;17.20;15.00;;;;;;;7.84;69.46;97873.33;106736;1276;22652;-76
2023/05/02 01:12:08;;;;;;;13.50;12.00;;;;;;;7.88;69.01;97872.52;106566;1276;22508;-76
2023/05/02 01:14:52;;;;;;;14.20;12.70;;;;;;;7.81;69.20;97876.40;106611;1276;23185;-75
2023/05/02 01:17:27;;;;;;;44.60;40.70;;;;;;;7.70;69.89;97873.80;106462;1276;22521;-76
2023/05/02 01:19:59;;;;;;;17.60;16.00;;;;;;;7.64;69.86;97877.17;106726;1276;22648;-76
2023/05/02 01:22:29;;;;;;;12.70;10.90;;;;;;;7.62;69.49;97881.76;106500;1276;22533;-76
2023/05/02 01:25:19;;;;;;;12.80;11.50;;;;;;;7.65;69.31;97880.48;106743;1276;22626;-76
2023/05/02 01:27:50;;;;;;;12.80;10.70;;;;;;;7.71;69.31;97876.81;106709;1273;24372;-78
2023/05/02 01:30:21;;;;;;;12.30;10.10;;;;;;;7.68;71.29;97878.43;106527;1276;23905;-76
2023/05/02 01:32:53;;;;;;;11.90;10.60;;;;;;;7.64;71.26;97880.29;106437;1276;22758;-75
2023/05/02 01:35:22;;;;;;;25.00;18.80;;;;;;;7.60;71.03;97880.42;106743;1276;22640;-76
2023/05/02 01:37:52;;;;;;;14.00;12.40;;;;;;;7.59;70.61;97885.58;106742;1276;23430;-75
2023/05/02 01:40:21;;;;;;;13.10;11.70;;;;;;;7.58;70.25;97879.73;106770;1276;22518;-75
2023/05/02 01:42:52;;;;;;;13.30;10.90;;;;;;;7.53;70.24;97878.23;106787;1276;22789;-75
2023/05/02 01:45:22;;;;;;;13.10;10.50;;;;;;;7.49;70.38;97879.65;106479;1276;25143;-75
2023/05/02 01:47:51;;;;;;;12.40;11.20;;;;;;;7.48;70.20;97879.70;106504;1276;22508;-76
2023/05/02 01:50:23;;;;;;;13.90;11.60;;;;;;;7.52;70.24;97882.58;106720;1276;22539;-75
2023/05/02 01:52:53;;;;;;;14.90;12.00;;;;;;;7.56;70.29;97880.39;106768;1276;22902;-77
2023/05/02 01:55:23;;;;;;;16.70;15.00;;;;;;;7.58;70.83;97879.37;106767;1276;25389;-75
2023/05/02 01:57:53;;;;;;;14.10;12.50;;;;;;;7.50;71.78;97879.59;106757;1276;22778;-75
2023/05/02 02:00:22;;;;;;;12.20;11.00;;;;;;;7.40;72.28;97879.55;106463;1276;24330;-75
2023/05/02 02:02:53;;;;;;;29.30;26.10;;;;;;;7.35;71.71;97878.61;106423;1276;25121;-75
2023/05/02 02:05:23;;;;;;;21.60;19.20;;;;;;;7.33;71.82;97877.71;106418;1276;22604;-76
2023/05/02 02:07:51;;;;;;;16.70;14.40;;;;;;;7.36;71.70;97878.34;106919;1276;22644;-75
2023/05/02 02:10:21;;;;;;;15.00;13.50;;;;;;;7.45;71.94;97876.95;106414;1276;22633;-76
2023/05/02 02:12:52;;;;;;;17.00;15.50;;;;;;;7.52;71.43;97875.88;106727;1276;25414;-75
2023/05/02 02:15:27;;;;;;;16.20;14.70;;;;;;;7.56;71.48;97872.51;106738;1276;22635;-76
2023/05/02 02:18:00;;;;;;;14.40;12.80;;;;;;;7.57;71.46;97868.71;106731;1276;22634;-77
2023/05/02 02:20:29;;;;;;;16.40;14.70;;;;;;;7.54;71.56;97876.61;106886;1276;24372;-76
2023/05/02 02:22:59;;;;;;;18.00;16.40;;;;;;;7.48;72.56;97873.16;106458;1276;22630;-76
2023/05/02 02:25:28;;;;;;;16.90;15.20;;;;;;;7.37;72.75;97871.36;106760;1276;22522;-76
2023/05/02 02:27:57;;;;;;;15.50;13.90;;;;;;;7.33;72.25;97872.20;106752;1276;25329;-77
2023/05/02 02:30:25;;;;;;;12.10;10.80;;;;;;;7.33;72.69;97865.88;106837;1276;22605;-77
2023/05/02 02:32:53;;;;;;;15.60;11.00;;;;;;;7.31;72.76;97869.21;106428;1276;25214;-78
2023/05/02 02:35:22;;;;;;;19.80;16.70;;;;;;;7.31;73.35;97871.88;106737;1276;22581;-77
2023/05/02 02:38:22;;;;;;;19.80;17.80;;;;;;;7.30;73.31;97874.90;106740;1276;22532;-76
2023/05/02 02:41:11;;;;;;;29.30;26.60;;;;;;;7.37;73.48;97870.40;106754;1276;25380;-76
2023/05/02 02:43:53;;;;;;;18.00;16.20;;;;;;;7.50;73.37;97871.71;106762;1275;25417;-75
2023/05/02 02:46:27;;;;;;;15.50;12.30;;;;;;;7.65;73.18;97869.23;106756;1276;22551;-75
2023/05/02 02:49:39;;;;;;;19.70;17.80;;;;;;;7.82;72.85;97871.08;106728;1276;22629;-76
2023/05/02 02:52:26;;;;;;;17.90;15.00;;;;;;;7.96;72.23;97867.75;106731;1276;24229;-76
2023/05/02 02:55:33;;;;;;;23.20;21.00;;;;;;;8.09;72.00;97865.36;106437;1276;22951;-76
2023/05/02 02:58:13;;;;;;;16.80;12.40;;;;;;;8.26;72.18;97869.65;106620;1276;26686;-76
2023/05/02 03:00:42;;;;;;;19.00;14.90;;;;;;;8.37;72.24;97870.84;106757;1276;22526;-76
2023/05/02 03:03:12;;;;;;;16.70;15.10;;;;;;;8.47;72.35;97874.08;106832;1264;24388;-76
2023/05/02 03:05:43;;;;;;;17.10;14.90;;;;;;;8.55;71.96;97877.28;106818;1276;22512;-76
2023/05/02 03:08:12;;;;;;;14.10;12.70;;;;;;;8.58;71.99;97875.95;106497;1276;22664;-75
2023/05/02 03:10:41;;;;;;;13.90;10.80;;;;;;;8.57;71.43;97878.58;106745;1276;22731;-75
2023/05/02 03:13:09;;;;;;;12.90;10.00;;;;;;;8.55;71.11;97878.88;106441;1276;22521;-76
2023/05/02 03:16:05;;;;;;;12.40;10.20;;;;;;;8.54;71.24;97881.10;106733;1276;24403;-76
2023/05/02 03:18:33;;;;;;;11.90;10.70;;;;;;;8.53;71.24;97878.11;106767;1276;22528;-76
2023/05/02 03:21:01;;;;;;;10.80;9.10;;;;;;;8.51;70.99;97877.23;106428;1276;24075;-76
2023/05/02 03:23:30;;;;;;;10.40;9.30;;;;;;;8.52;70.98;97880.38;106768;1276;22537;-76
2023/05/02 03:25:58;;;;;;;14.40;9.50;;;;;;;8.56;70.66;97884.85;106762;1276;24372;-76
2023/05/02 03:28:27;;;;;;;11.10;8.60;;;;;;;8.60;70.82;97883.73;106776;1276;22580;-76
2023/05/02 03:30:55;;;;;;;13.60;8.80;;;;;;;8.64;70.54;97883.24;106618;1276;22605;-77
2023/05/02 03:33:24;;;;;;;9.30;8.10;;;;;;;8.71;70.24;97884.04;106768;1276;22495;-76
2023/05/02 03:35:54;;;;;;;10.40;8.10;;;;;;;8.77;69.99;97882.50;106776;1276;24250;-77
2023/05/02 03:38:22;;;;;;;15.10;8.60;;;;;;;8.84;69.59;97881.83;106440;1276;22571;-77
2023/05/02 03:40:51;;;;;;;11.10;8.30;;;;;;;8.91;69.92;97880.83;106722;1276;23145;-76
2023/05/02 03:43:19;;;;;;;13.20;7.80;;;;;;;8.95;69.75;97879.96;106741;1276;22634;-75
2023/05/02 03:45:47;;;;;;;11.10;8.00;;;;;;;9.01;69.36;97879.52;106753;1276;22633;-75
2023/05/02 03:48:16;;;;;;;11.30;7.50;;;;;;;9.05;69.32;97880.66;106912;1276;22634;-76
2023/05/02 03:50:44;;;;;;;12.30;7.70;;;;;;;9.10;69.02;97879.66;107088;1276;25262;-77
2023/05/02 03:53:12;;;;;;;10.80;8.50;;;;;;;9.15;68.78;97880.95;106814;1276;23517;-77
2023/05/02 03:55:44;;;;;;;13.00;8.70;;;;;;;9.19;68.68;97881.13;106934;1276;22775;-76
2023/05/02 03:58:15;;;;;;;9.60;8.10;;;;;;;9.22;68.64;97881.11;106732;1276;22560;-76
2023/05/02 04:00:44;;;;;;;8.60;7.30;;;;;;;9.27;68.45;97880.15;106771;1276;22630;-75
2023/05/02 04:03:12;;;;;;;8.10;7.30;;;;;;;9.32;68.00;97879.00;106444;1276;22777;-76
2023/05/02 04:05:42;;;;;;;9.40;6.30;;;;;;;9.37;67.79;97880.00;106728;1276;22525;-74
2023/05/02 04:08:12;;;;;;;11.40;7.30;;;;;;;9.44;67.67;97884.04;106589;1276;22571;-75
2023/05/02 04:10:41;;;;;;;11.20;7.20;;;;;;;9.51;67.64;97883.40;106724;1276;24260;-76
2023/05/02 04:13:10;;;;;;;9.40;7.70;;;;;;;9.57;67.36;97888.52;106739;1276;22768;-76
2023/05/02 04:15:44;;;;;;;10.00;7.60;;;;;;;9.64;67.06;97888.91;106791;1276;24385;-77
2023/05/02 04:18:14;;;;;;;11.50;7.90;;;;;;;9.70;67.05;97891.61;106775;1276;22542;-75
2023/05/02 04:20:44;;;;;;;10.70;8.50;;;;;;;9.77;67.00;97888.33;106722;1276;25465;-76
2023/05/02 04:23:14;;;;;;;11.30;7.90;;;;;;;9.85;66.83;97891.39;106765;1276;22548;-74
2023/05/02 04:25:53;;;;;;;13.30;8.50;;;;;;;9.92;66.71;97892.14;106579;1276;22530;-73
2023/05/02 04:28:24;;;;;;;10.40;8.30;;;;;;;10.02;66.59;97893.04;106752;1276;22741;-73
2023/05/02 04:30:53;;;;;;;8.50;7.10;;;;;;;10.14;65.84;97892.27;106713;1276;22782;-75
2023/05/02 04:33:23;;;;;;;7.70;6.50;;;;;;;10.26;65.14;97888.02;106753;1276;23923;-76
2023/05/02 04:35:52;;;;;;;8.30;6.80;;;;;;;10.37;64.76;97891.05;106612;1276;22727;-74
2023/05/02 04:38:22;;;;;;;8.40;6.50;;;;;;;10.50;64.21;97890.88;106748;1276;24367;-74
2023/05/02 04:40:53;;;;;;;8.30;7.00;;;;;;;10.63;63.55;97893.21;106706;1276;22940;-73
2023/05/02 04:43:29;;;;;;;12.70;7.30;;;;;;;10.76;63.22;97895.16;106783;1276;22566;-73
2023/05/02 04:46:01;;;;;;;10.20;6.90;;;;;;;10.88;62.86;97890.13;106738;1276;22633;-73
2023/05/02 04:48:33;;;;;;;8.90;6.70;;;;;;;11.00;62.44;97894.23;106732;1276;22532;-73
2023/05/02 04:51:01;;;;;;;7.70;6.80;;;;;;;11.10;61.76;97894.16;106788;1276;24218;-74
2023/05/02 04:53:30;;;;;;;8.20;7.30;;;;;;;11.20;62.10;97892.34;106707;1276;22529;-74
2023/05/02 04:55:58;;;;;;;8.00;6.90;;;;;;;11.29;61.83;97894.45;106487;1276;26634;-74
2023/05/02 04:58:27;;;;;;;9.50;7.90;;;;;;;11.37;61.62;97892.23;106608;1276;22574;-74
2023/05/02 05:01:02;;;;;;;8.70;7.70;;;;;;;11.47;60.79;97897.73;106726;1276;24196;-74
2023/05/02 05:03:31;;;;;;;11.20;7.80;;;;;;;11.54;60.35;97894.66;106749;1276;22521;-74
2023/05/02 05:06:01;;;;;;;10.50;7.70;;;;;;;11.61;60.32;97895.96;106794;1276;24358;-74
2023/05/02 05:08:30;;;;;;;9.80;8.30;;;;;;;11.69;60.55;97897.77;106729;1273;22536;-74
2023/05/02 05:10:59;;;;;;;10.70;8.50;;;;;;;11.78;59.62;97899.56;106422;1276;22522;-74
2023/05/02 05:13:27;;;;;;;9.40;8.10;;;;;;;11.85;59.73;97900.16;106451;1276;22536;-75
2023/05/02 05:15:55;;;;;;;10.50;7.70;;;;;;;11.92;59.63;97902.38;106733;1276;22536;-77
2023/05/02 05:18:27;;;;;;;9.70;7.80;;;;;;;11.99;59.31;97903.52;106740;1276;22521;-74
2023/05/02 05:20:55;;;;;;;9.50;7.20;;;;;;;12.08;59.23;97903.84;106739;1276;25373;-77
2023/05/02 05:23:23;;;;;;;10.80;7.40;;;;;;;12.18;58.80;97903.32;106748;1276;24241;-76
2023/05/02 05:25:51;;;;;;;10.00;7.50;;;;;;;12.28;58.49;97903.83;106546;1276;22637;-76
2023/05/02 05:28:19;;;;;;;6.80;5.00;;;;;;;12.38;58.62;97905.85;106770;1276;25355;-74
2023/05/02 05:30:47;;;;;;;9.80;6.90;;;;;;;12.61;59.18;97905.30;106577;1276;23642;-74
2023/05/02 05:33:19;;;;;;;12.20;5.80;;;;;;;12.87;59.17;97908.58;106749;1276;25281;-74
2023/05/02 05:35:48;;;;;;;9.00;6.90;;;;;;;13.19;59.02;97905.92;106522;1276;24345;-74
2023/05/02 05:38:16;;;;;;;8.50;6.10;;;;;;;13.49;57.99;97906.10;106856;1276;25361;-75
2023/05/02 05:40:48;;;;;;;8.30;6.00;;;;;;;13.75;57.58;97907.02;106835;1276;22634;-73
2023/05/02 05:43:17;;;;;;;10.20;6.10;;;;;;;14.06;57.86;97903.94;106790;1276;23285;-73
2023/05/02 05:45:45;;;;;;;8.90;6.20;;;;;;;14.31;57.74;97903.16;106537;1276;23028;-75
2023/05/02 05:48:12;;;;;;;6.60;5.50;;;;;;;14.54;56.29;97904.73;106614;1276;174860;-73
2023/05/02 05:50:44;;;;;;;6.80;5.40;;;;;;;14.65;56.24;97907.38;106845;1276;22783;-73
2023/05/02 05:53:13;;;;;;;7.40;5.60;;;;;;;14.77;56.28;97902.63;106791;1276;24374;-74
2023/05/02 05:55:43;;;;;;;7.30;4.80;;;;;;;14.91;56.33;97906.84;106894;1276;23151;-73
2023/05/02 05:58:11;;;;;;;7.50;5.00;;;;;;;15.05;56.06;97907.49;106640;1276;22518;-74
2023/05/02 06:00:41;;;;;;;7.20;5.20;;;;;;;15.18;55.94;97910.66;106946;1276;25405;-72
2023/05/02 06:03:09;;;;;;;7.30;5.30;;;;;;;15.30;55.57;97912.42;106856;1276;25571;-74
2023/05/02 06:05:38;;;;;;;8.30;4.90;;;;;;;15.42;54.78;97911.65;106868;1276;22936;-74
2023/05/02 06:08:07;;;;;;;7.30;5.40;;;;;;;15.54;54.81;97914.92;106827;1276;24180;-73
2023/05/02 06:10:35;;;;;;;9.80;6.10;;;;;;;15.69;54.16;97916.58;106884;1276;22528;-73
2023/05/02 06:13:04;;;;;;;6.70;5.40;;;;;;;15.86;53.64;97918.54;106848;1276;22528;-74
2023/05/02 06:15:36;;;;;;;7.90;5.90;;;;;;;15.97;53.28;97916.11;106836;1276;22652;-74
2023/05/02 06:18:05;;;;;;;6.80;5.20;;;;;;;16.06;52.65;97922.67;106827;1276;22517;-75
2023/05/02 06:20:36;;;;;;;8.60;5.50;;;;;;;16.15;52.31;97928.71;106739;1276;25390;-75
2023/05/02 06:23:04;;;;;;;8.30;5.70;;;;;;;16.31;52.54;97929.70;106465;1276;25265;-74
2023/05/02 06:25:32;;;;;;;9.60;5.50;;;;;;;16.52;52.38;97932.49;106778;1276;23379;-74
2023/05/02 06:28:00;;;;;;;8.10;5.80;;;;;;;16.69;51.66;97930.80;106733;1276;24259;-74
2023/05/02 06:30:28;;;;;;;8.80;5.70;;;;;;;16.79;52.06;97929.67;106720;1276;22665;-74
2023/05/02 06:32:56;;;;;;;7.40;5.40;;;;;;;16.93;51.40;97928.51;106741;1276;22529;-77
2023/05/02 06:35:24;;;;;;;7.30;5.20;;;;;;;17.07;50.95;97935.33;106861;1276;22986;-74
2023/05/02 06:37:52;;;;;;;8.00;5.20;;;;;;;17.17;51.25;97937.77;106841;1276;26615;-75
2023/05/02 06:40:20;;;;;;;7.70;5.30;;;;;;;17.23;50.71;97938.19;106897;1276;23983;-74
2023/05/02 06:42:48;;;;;;;6.30;5.00;;;;;;;17.32;51.12;97943.12;106817;1276;25391;-74
2023/05/02 06:45:16;;;;;;;8.50;5.10;;;;;;;17.40;50.58;97946.19;106794;1276;23896;-76
2023/05/02 06:47:44;;;;;;;6.70;4.90;;;;;;;17.56;50.72;97948.93;106879;1276;23902;-74
2023/05/02 06:50:12;;;;;;;6.00;4.70;;;;;;;17.65;50.12;97953.79;106882;1276;22528;-75
2023/05/02 06:52:40;;;;;;;7.30;5.00;;;;;;;17.69;49.27;97949.60;106763;1276;22521;-76
2023/05/02 06:55:08;;;;;;;8.40;5.30;;;;;;;17.79;49.57;97950.54;106739;1276;25639;-74
2023/05/02 06:57:36;;;;;;;11.20;6.00;;;;;;;17.90;49.27;97948.70;106777;1276;25337;-74
2023/05/02 07:00:05;;;;;;;12.00;4.70;;;;;;;17.93;48.27;97953.07;106736;1276;25423;-74
2023/05/02 07:02:33;;;;;;;7.10;4.00;;;;;;;17.91;47.43;97957.61;106698;1276;22518;-73
2023/05/02 07:05:01;;;;;;;8.30;4.40;;;;;;;17.88;46.16;97955.58;106725;1276;23896;-74
2023/05/02 07:07:29;;;;;;;7.10;4.00;;;;;;;17.86;46.46;97960.35;106728;1276;25309;-75
2023/05/02 07:09:57;;;;;;;5.80;3.90;;;;;;;17.87;44.66;97957.41;106705;1276;25271;-75
2023/05/02 07:12:25;;;;;;;9.10;4.20;;;;;;;17.80;44.08;97960.55;106748;1276;22616;-75
2023/05/02 07:14:53;;;;;;;10.00;4.40;;;;;;;17.78;44.81;97958.46;106732;1276;26683;-73
2023/05/02 07:17:22;;;;;;;5.70;3.70;;;;;;;17.81;45.32;97957.94;106763;1276;22788;-74
2023/05/02 07:19:50;;;;;;;6.90;3.80;;;;;;;17.86;45.49;97958.39;106712;1276;24371;-74
2023/05/02 07:22:19;;;;;;;10.40;4.30;;;;;;;17.86;45.39;97957.55;106748;1276;22533;-73
2023/05/02 07:24:48;;;;;;;6.20;4.10;;;;;;;17.90;45.05;97956.71;106735;1276;22532;-73
2023/05/02 07:27:16;;;;;;;12.10;4.50;;;;;;;17.99;45.47;97961.64;106738;1276;25390;-74
2023/05/02 07:29:43;;;;;;;11.60;4.30;;;;;;;18.09;44.76;97963.02;106754;1258;22535;-74
2023/05/02 07:32:11;;;;;;;6.80;4.00;;;;;;;18.17;44.42;97963.77;106737;1263;22528;-74
2023/05/02 07:34:40;;;;;;;5.90;4.20;;;;;;;18.24;44.27;97966.94;106728;1263;22528;-76
2023/05/02 07:37:07;;;;;;;5.70;4.00;;;;;;;18.27;44.04;97969.14;106758;1276;25041;-78
2023/05/02 07:39:35;;;;;;;7.90;4.10;;;;;;;18.30;44.14;97970.30;106764;1276;22778;-77
2023/05/02 07:42:03;;;;;;;7.90;4.90;;;;;;;18.33;44.90;97970.39;106898;1259;22524;-78
2023/05/02 07:44:32;;;;;;;8.80;4.40;;;;;;;18.44;44.53;97972.39;106928;1276;22528;-78
2023/05/02 07:47:01;;;;;;;6.50;4.00;;;;;;;18.54;44.69;97973.30;106930;1276;25216;-77
2023/05/02 07:49:30;;;;;;;6.70;3.50;;;;;;;18.65;43.94;97975.00;106885;1276;24224;-77
2023/05/02 07:51:58;;;;;;;9.20;3.90;;;;;;;18.66;43.63;97977.27;106798;1276;25322;-76
2023/05/02 07:54:26;;;;;;;7.20;4.00;;;;;;;18.72;43.86;97973.84;106868;1276;25384;-77
2023/05/02 07:56:57;;;;;;;5.30;3.60;;;;;;;18.83;44.21;97969.02;106802;1276;22532;-75
2023/05/02 07:59:25;;;;;;;6.10;4.00;;;;;;;18.95;43.84;97967.36;106771;1276;22563;-75
2023/05/02 08:01:53;;;;;;;6.10;3.70;;;;;;;19.07;44.26;97965.39;106471;1276;22528;-76
2023/05/02 08:04:20;;;;;;;8.20;4.00;;;;;;;19.22;43.70;97966.08;106749;1276;22661;-76
2023/05/02 08:06:49;;;;;;;5.60;3.50;;;;;;;19.35;43.10;97966.67;106881;1276;22528;-77
2023/05/02 08:09:17;;;;;;;9.80;3.40;;;;;;;19.45;43.46;97966.15;106921;1276;25325;-77
2023/05/02 08:11:45;;;;;;;5.10;3.30;;;;;;;19.54;42.63;97967.44;106854;1266;23967;-75
2023/05/02 08:14:15;;;;;;;6.10;3.20;;;;;;;19.58;42.63;97965.02;106821;1276;23849;-75
2023/05/02 08:16:43;;;;;;;9.50;3.90;;;;;;;19.73;42.87;97964.38;106879;1276;22662;-74
2023/05/02 08:19:14;;;;;;;5.90;2.90;;;;;;;19.91;42.14;97968.20;106875;1276;22528;-75
2023/05/02 08:21:42;;;;;;;5.00;3.20;;;;;;;19.91;41.32;97964.91;106891;1276;23106;-76
2023/05/02 08:24:10;;;;;;;8.40;3.10;;;;;;;19.87;42.04;97966.06;107006;1276;25390;-76
2023/05/02 08:26:38;;;;;;;4.80;3.10;;;;;;;19.95;41.51;97966.19;106662;1276;22626;-76
2023/05/02 08:29:06;;;;;;;5.40;3.10;;;;;;;19.96;41.42;97964.09;106977;1276;24147;-75
2023/05/02 08:31:34;;;;;;;8.50;3.20;;;;;;;19.99;41.06;97963.66;106815;1276;22624;-77
2023/05/02 08:34:04;;;;;;;4.50;3.10;;;;;;;19.94;40.65;97960.93;106958;1276;22630;-75
2023/05/02 08:36:32;;;;;;;6.40;3.20;;;;;;;19.96;41.07;97965.65;106856;1276;22599;-76
2023/05/02 08:39:00;;;;;;;9.30;3.90;;;;;;;20.03;40.91;97971.33;106738;1276;22525;-78
2023/05/02 08:41:30;;;;;;;6.50;3.40;;;;;;;20.03;41.04;97972.19;106906;1276;22646;-75
2023/05/02 08:43:58;;;;;;;4.70;3.40;;;;;;;20.16;40.95;97981.60;106822;1276;22532;-74
2023/05/02 08:46:27;;;;;;;6.10;3.50;;;;;;;20.19;40.32;97982.68;106797;1276;22660;-75
2023/05/02 08:48:57;;;;;;;5.10;3.70;;;;;;;20.17;40.41;97982.48;106782;1276;24293;-75
2023/05/02 08:51:27;;;;;;;5.60;3.70;;;;;;;20.21;39.81;97984.36;106938;1276;22550;-76
2023/05/02 08:53:57;;;;;;;5.60;3.50;;;;;;;20.26;40.04;97990.00;107063;1276;22749;-77
2023/05/02 08:56:25;;;;;;;7.80;4.10;;;;;;;20.28;39.46;97990.43;106987;1276;22580;-74
2023/05/02 08:58:53;;;;;;;5.50;3.80;;;;;;;20.23;40.06;97983.77;106814;1276;22638;-75
2023/05/02 09:01:23;;;;;;;4.50;3.20;;;;;;;20.32;40.01;97978.64;106755;1276;22562;-74
2023/05/02 09:03:51;;;;;;;7.20;3.10;;;;;;;20.33;39.87;97980.05;106770;1276;22994;-75
2023/05/02 09:06:21;;;;;;;5.40;3.60;;;;;;;20.36;39.85;97979.89;106756;1276;22784;-75
2023/05/02 09:08:53;;;;;;;5.00;3.20;;;;;;;20.33;39.64;97976.48;106790;1276;22518;-75
2023/05/02 09:11:21;;;;;;;6.40;3.00;;;;;;;20.25;39.55;97974.13;106608;1277;22671;-75
2023/05/02 09:13:51;;;;;;;5.80;3.90;;;;;;;20.22;39.69;97979.86;106488;1277;22539;-75
2023/05/02 09:16:24;;;;;;;6.40;3.00;;;;;;;20.29;39.60;97977.64;106555;1277;25390;-74
2023/05/02 09:18:54;;;;;;;6.40;3.50;;;;;;;20.44;39.80;97974.89;106617;1277;23029;-75
2023/05/02 09:21:38;;;;;;;6.30;3.20;;;;;;;20.64;39.92;97975.05;106526;1277;23145;-75
2023/05/02 09:24:15;;;;;;;;;;;;;;;20.76;39.46;97978.17;106549;1277;24476;-76
2023/05/02 09:26:59;;;;;;;5.30;3.50;;;;;;;20.72;39.64;97978.40;106581;1277;22537;-78
2023/05/02 09:29:34;;;;;;;4.20;3.10;;;;;;;20.65;39.78;97983.84;106768;1278;22664;-76
2023/05/02 09:32:04;;;;;;;4.40;3.30;;;;;;;20.61;39.64;97985.01;106663;1277;23102;-77
2023/05/02 09:34:33;;;;;;;7.10;3.40;;;;;;;20.56;38.95;97990.86;106614;1277;25468;-75
2023/05/02 09:37:04;;;;;;;7.90;3.10;;;;;;;20.39;38.88;97985.20;106651;1277;22630;-75
2023/05/02 09:39:32;;;;;;;5.20;3.60;;;;;;;20.31;38.91;97988.23;106705;1277;25407;-75
2023/05/02 09:42:01;;;;;;;9.90;3.30;;;;;;;20.22;38.83;97992.03;106733;1276;22613;-75
2023/05/02 09:44:37;;;;;;;6.90;3.60;;;;;;;20.05;38.94;97995.60;106624;1277;22630;-75
2023/05/02 09:47:07;;;;;;;7.00;3.50;;;;;;;19.88;39.60;97991.64;106630;1277;24218;-75
2023/05/02 09:49:45;;;;;;;6.20;3.60;;;;;;;19.73;40.00;97995.08;106641;1277;22644;-76
2023/05/02 09:52:22;;;;;;;5.60;3.50;;;;;;;19.63;40.42;98001.62;106573;1277;22541;-74
2023/05/02 09:54:51;;;;;;;8.40;3.80;;;;;;;19.50;40.77;97997.95;106990;1277;25310;-75
2023/05/02 09:57:19;;;;;;;6.20;4.00;;;;;;;19.45;40.82;98002.13;106694;1277;22515;-75
2023/05/02 10:00:07;;;;;;;6.30;3.40;;;;;;;19.41;41.18;98009.55;106465;1277;22521;-75
2023/05/02 10:02:40;;;;;;;6.10;3.40;;;;;;;19.42;41.18;98008.63;106519;1277;24378;-75
2023/05/02 10:05:09;;;;;;;8.60;3.50;;;;;;;19.36;41.40;98010.27;106588;1277;25308;-76
2023/05/02 10:07:38;;;;;;;6.00;3.70;;;;;;;19.43;41.62;98007.46;106532;1277;25402;-75
2023/05/02 10:10:09;;;;;;;8.00;4.90;;;;;;;19.50;41.48;98010.67;106609;1277;22642;-76
2023/05/02 10:12:38;;;;;;;5.40;3.60;;;;;;;19.53;41.53;98011.38;106723;1277;25393;-76
2023/05/02 10:15:08;;;;;;;23.50;11.70;;;;;;;19.69;41.33;98011.60;106617;1277;25385;-75
2023/05/02 10:17:46;;;;;;;10.80;4.00;;;;;;;19.85;40.87;98017.59;106583;1277;24442;-75
2023/05/02 10:20:22;;;;;;;5.70;3.40;;;;;;;19.93;40.64;98013.48;106428;1277;22531;-75
2023/05/02 10:22:52;;;;;;;6.10;3.90;;;;;;;20.08;40.64;98009.50;106655;1277;22531;-75
2023/05/02 10:25:20;;;;;;;4.90;3.30;;;;;;;20.29;40.37;98011.48;106594;1277;22522;-74
2023/05/02 10:27:48;;;;;;;6.10;4.00;;;;;;;20.37;40.47;98005.16;106621;1277;22520;-75
2023/05/02 10:30:16;;;;;;;6.10;3.20;;;;;;;20.49;40.23;98009.40;106603;1277;24208;-75
2023/05/02 10:32:48;;;;;;;8.00;3.60;;;;;;;20.52;39.95;98004.91;106682;1277;25345;-75
2023/05/02 10:35:16;;;;;;;6.10;3.40;;;;;;;20.46;39.96;98006.80;106540;1277;22633;-75
2023/05/02 10:37:46;;;;;;;5.20;3.30;;;;;;;20.46;39.61;98009.88;106614;1277;25337;-75
2023/05/02 10:40:14;;;;;;;9.00;3.60;;;;;;;20.41;38.83;98015.33;106689;1277;22976;-75
2023/05/02 10:42:46;;;;;;;5.20;3.70;;;;;;;20.36;38.46;98013.12;106547;1277;22512;-76
2023/05/02 10:45:34;;;;;;;6.60;3.30;;;;;;;20.28;38.52;98017.17;106581;1277;22559;-77
2023/05/02 10:48:32;;;;;;;4.70;3.10;;;;;;;20.19;38.30;98013.88;106648;1277;24365;-77
2023/05/02 10:51:00;;;;;;;4.30;3.40;;;;;;;20.12;38.18;98005.13;106214;1283;24150;-76
2023/05/02 10:53:36;;;;;;;7.00;3.60;;;;;;;20.09;38.63;98005.84;106247;1283;22533;-75
2023/05/02 10:56:10;;;;;;;6.50;3.80;;;;;;;20.20;38.74;98006.08;106176;1283;23169;-81
2023/05/02 10:58:38;;;;;;;7.20;3.70;;;;;;;20.28;38.59;98012.02;106432;1283;24236;-76
2023/05/02 11:01:27;;;;;;;4.90;3.00;;;;;;;20.26;37.48;98009.55;106373;1283;22651;-76
2023/05/02 11:03:56;;;;;;;5.40;3.20;;;;;;;20.24;37.36;98012.17;106450;1283;22578;-76
2023/05/02 11:06:26;;;;;;;6.10;3.10;;;;;;;20.20;36.93;98007.23;106335;1283;22536;-77
2023/05/02 11:09:13;;;;;;;6.10;3.40;;;;;;;20.28;37.42;98004.98;106306;1283;22975;-77
2023/05/02 11:11:45;;;;;;;5.60;3.60;;;;;;;20.46;37.56;98008.25;106416;1283;22651;-78
2023/05/02 11:14:25;;;;;;;7.20;3.70;;;;;;;20.49;37.61;98006.89;106307;1283;22522;-77
2023/05/02 11:16:56;;;;;;;6.60;3.50;;;;;;;20.51;38.02;98010.23;106198;1283;25277;-78
2023/05/02 11:19:25;;;;;;;7.10;3.90;;;;;;;20.46;38.47;98016.14;106272;1283;22595;-78
2023/05/02 11:22:19;;;;;;;9.20;4.90;;;;;;;20.40;38.69;98015.77;106080;1283;24374;-78
2023/05/02 11:24:49;;;;;;;10.70;3.30;;;;;;;20.33;38.92;98020.98;106374;1283;25417;-77
2023/05/02 11:27:29;;;;;;;7.50;3.80;;;;;;;20.31;38.89;98019.56;106449;1277;25389;-77
2023/05/02 11:29:57;;;;;;;9.10;3.80;;;;;;;20.30;38.70;98015.80;106767;1277;22614;-77
2023/05/02 11:32:48;;;;;;;6.40;3.50;;;;;;;20.23;38.81;98019.73;106630;1269;24200;-77
2023/05/02 11:35:19;;;;;;;6.10;3.70;;;;;;;20.17;38.96;98020.23;106764;1277;24377;-77
2023/05/02 11:37:54;;;;;;;6.30;3.50;;;;;;;20.10;38.96;98028.14;106790;1277;22740;-76
2023/05/02 11:40:24;;;;;;;7.00;3.30;;;;;;;19.93;39.26;98027.15;106783;1277;24229;-77